Holyoke, CO

12:49 AM MDT on July 30, 2014 (GMT -0600)
Holyoke Municipal (KHEQ) Elev 3730 ft | 40.57 °N, 102.28 °W | Change Station

Current weather conditions updated 14 minutes ago

Rain
Rain
63 °F
Feels Like 63 °F
N
13
Wind Variable Wind from East

Today is forecast to be Much Cooler than yesterday. Rain and thunder.

Today
High -- | Low -- °F
--% Chance of Precip.
Yesterday
High -- | Low -- °F
Precip. -- in
5:44 AM 8:06 PM
Waxing Crescent, 10% visible
Pressure 30.23 in
Visibility 4.0 miles
Clouds Scattered Clouds 700 ft
Mostly Cloudy 1300 ft
Overcast 2100 ft
Dew Point 61 °F
Humidity 94%
Rainfall 0.00 in
Snow Depth Not available.
UV 0 out of 12
Pollen 6.00 out of 12
Air Quality Not available.
Flu Activity Not available.
METAR KHEQ 300635Z AUTO 10011KT 4SM RA SCT007 BKN013 OVC021 17/16 A3023 RMK AO2

More Conditions Fewer Conditions

Pressure 30.23 in
Visibility 4.0 miles
Clouds Scattered Clouds 700 ft
Mostly Cloudy 1300 ft
Overcast 2100 ft
Dew Point 61 °F
Humidity 94%
Rainfall 0.00 in
Snow Depth Not available.
UV 0 out of 12
Pollen 6.00 out of 12
Air Quality Not available.
Flu Activity Not available.
METAR KHEQ 300635Z AUTO 10011KT 4SM RA SCT007 BKN013 OVC021 17/16 A3023 RMK AO2

More Conditions Fewer Conditions

Nowcast | as of 12:47 am MDT on July 30, 2014

Showers and isolated thunderstorms will continue over the northeast corner of the state through 3 am. Rainfall rates will range from one quarter to one half inch per hour.

×

10-Day Weather Forecast

Almanac

Astronomy

Jul. 30, 2014 Rise Set
Actual Time 5:44 AM MDT 8:06 PM MDT
Civil Twilight 5:13 AM MDT 8:37 PM MDT
Nautical Twilight 4:35 AM MDT 9:15 PM MDT
Astronomical Twilight 3:53 AM MDT 9:57 PM MDT
Moon 9:19 AM MDT 9:48 PM MDT
Length of Visible Light 15h 23m
Length of Day
14h 21m
Tomorrow will be 1m 59s shorter.
Waxing Crescent, 10% of the Moon is Illuminated
Today
Waxing Crescent
Aug 3
First Quarter
Aug 10
Full
Aug 17
Last Quarter
Aug 25
New

Today's Extremes

State Highs State Lows

Community

WunderPhotos

Upload Photos

1,739,022 photos uploaded!

WunderBlogs® & News

By Dr. Jeff Masters
Director of Meteorology, Weather Underground
By Kari Strenfel
Meteorologist, Weather Underground
By Christopher C. Burt
Weather Historian, Weather Underground
July 29, 2014
July 29, 2014
July 29, 2014

Nearby

Snow Depth

Station Depth Elevation
Copeland Lake 0 in 8600 ft
Niwot 0 in 9910 ft
Wild Basin 1 in 9560 ft
University Camp 0 in 10300 ft
Bear Lake 0 in 9500 ft

Earthquake Activity

City Distance Mag. Time & Date
No recent earthquake activity has been reported nearby.
Minimum magnitude displayed is 2.5.

Coastal Water Temperatures

Place Temperature
No Stations Reporting

Nearby Weather Stations

There are no personal weather stations in this area.